Time;durP1;ratioP1;P1;durP2;ratioP2;P2;SDS_P1;SDS_P2;PMS_P1;PMS_P2;Temp;Humidity;BMP_temperature;BMP_pressure;BME280_temperature;BME280_humidity;BME280_pressure;Samples;Min_cycle;Max_cycle;Signal;HPM_P1;HPM_P2
2023/01/17 00:01:15;;;;;;;19.35;9.73;;;;;;;14.93;54.30;98459.53;6157340;23;20031;-36
2023/01/17 00:12:01;;;;;;;15.50;7.82;;;;;;;14.93;54.08;98493.41;6157244;23;20030;-37
2023/01/17 00:14:27;;;;;;;14.32;7.88;;;;;;;14.92;54.96;98499.75;6156436;23;20025;-36
2023/01/17 00:16:54;;;;;;;13.80;7.97;;;;;;;14.91;54.48;98509.56;6156517;23;20032;-36
2023/01/17 01:34:22;;;;;;;5.93;3.78;;;;;;;14.75;54.62;98564.00;6154763;23;20112;-37
2023/01/17 01:36:49;;;;;;;7.18;4.13;;;;;;;14.75;53.97;98573.81;6154936;23;20052;-36
2023/01/17 01:39:16;;;;;;;6.85;3.85;;;;;;;14.75;54.54;98587.16;6154981;23;20289;-36
2023/01/17 01:41:42;;;;;;;7.63;4.10;;;;;;;14.75;53.85;98584.47;6155872;23;20343;-38
2023/01/17 01:44:40;;;;;;;5.88;3.40;;;;;;;14.74;54.15;98589.00;6156709;23;20394;-36
2023/01/17 01:47:28;;;;;;;4.93;3.13;;;;;;;14.76;54.42;98607.47;6156453;23;20402;-36
2023/01/17 01:49:57;;;;;;;8.50;4.50;;;;;;;14.76;54.02;98610.97;6156067;23;20108;-36
2023/01/17 01:52:28;;;;;;;6.57;3.90;;;;;;;14.78;54.07;98626.78;6156228;23;20040;-37
2023/01/17 01:55:01;;;;;;;7.15;4.05;;;;;;;14.78;53.96;98624.09;6154444;23;20118;-38
2023/01/17 01:57:32;;;;;;;6.05;3.25;;;;;;;14.77;54.46;98631.28;6156773;23;20028;-37
2023/01/17 02:00:30;;;;;;;6.45;3.60;;;;;;;14.76;53.86;98629.66;6155793;23;20032;-36
2023/01/17 02:03:01;;;;;;;4.55;3.13;;;;;;;14.79;54.35;98623.09;6156235;23;20026;-36
2023/01/17 02:05:28;;;;;;;5.68;3.47;;;;;;;14.78;54.02;98622.25;6155794;23;20129;-36
2023/01/17 02:08:02;;;;;;;5.32;3.17;;;;;;;14.77;54.71;98615.28;6156120;23;20029;-36
2023/01/17 02:10:36;;;;;;;6.20;3.95;;;;;;;14.77;54.60;98620.63;6155974;23;20025;-36
2023/01/17 02:13:04;;;;;;;6.10;3.83;;;;;;;14.78;54.47;98616.94;6155735;23;20025;-36
2023/01/17 02:15:55;;;;;;;6.22;3.63;;;;;;;14.75;54.23;98612.00;6155819;23;20081;-36
2023/01/17 02:18:51;;;;;;;5.72;2.90;;;;;;;14.75;54.47;98617.34;6155898;23;20104;-37
2023/01/17 02:21:25;;;;;;;5.47;3.08;;;;;;;14.76;54.84;98616.31;6156771;23;20033;-36
2023/01/17 02:24:19;;;;;;;4.10;2.53;;;;;;;14.74;54.71;98615.66;6154176;23;20025;-36
2023/01/17 02:26:57;;;;;;;5.57;3.20;;;;;;;14.75;54.48;98628.00;6155189;23;20288;-36
2023/01/17 02:29:40;;;;;;;4.40;2.80;;;;;;;14.75;53.88;98628.00;6155260;23;20112;-37
2023/01/17 02:32:15;;;;;;;5.13;3.22;;;;;;;14.75;53.97;98630.66;6155080;23;20051;-36
2023/01/17 02:35:09;;;;;;;4.28;2.67;;;;;;;14.74;54.59;98636.97;6153822;23;20188;-35
2023/01/17 02:37:56;;;;;;;5.10;2.90;;;;;;;14.74;54.75;98636.16;6153865;23;20030;-35
2023/01/17 02:40:37;;;;;;;5.05;3.15;;;;;;;14.72;54.12;98639.03;6153817;23;20425;-36
2023/01/17 02:43:09;;;;;;;5.20;3.10;;;;;;;14.73;54.00;98648.66;6154568;23;20108;-37
2023/01/17 02:45:36;;;;;;;4.57;2.72;;;;;;;14.74;53.75;98662.81;6155321;23;20028;-36
2023/01/17 02:48:06;;;;;;;5.32;3.45;;;;;;;14.74;53.73;98668.16;6155105;23;20040;-36
2023/01/17 02:51:19;;;;;;;5.63;3.50;;;;;;;14.73;54.61;98663.84;6155545;23;20080;-36
2023/01/17 02:53:49;;;;;;;4.95;2.72;;;;;;;14.74;53.75;98660.16;6153165;23;20036;-35
2023/01/17 02:56:38;;;;;;;4.28;2.67;;;;;;;14.72;53.69;98665.69;6155063;23;20270;-36
2023/01/17 02:59:20;;;;;;;5.20;2.80;;;;;;;14.73;54.35;98661.19;6155604;23;20022;-36
2023/01/17 03:01:58;;;;;;;4.72;3.15;;;;;;;14.73;54.07;98662.00;6155362;23;20397;-36
2023/01/17 03:05:05;;;;;;;3.33;2.47;;;;;;;14.72;53.61;98667.53;6154834;23;20022;-36
2023/01/17 03:07:33;;;;;;;4.57;2.53;;;;;;;14.74;54.21;98671.66;6139200;23;20100;-36
2023/01/17 03:10:02;;;;;;;3.10;2.22;;;;;;;14.73;53.67;98672.66;6152958;23;20021;-36
2023/01/17 03:12:31;;;;;;;3.88;2.28;;;;;;;14.73;54.63;98674.50;6155431;23;20033;-35
2023/01/17 03:14:57;;;;;;;4.40;2.70;;;;;;;14.71;53.55;98672.03;6155560;23;20462;-36
2023/01/17 03:17:29;;;;;;;3.70;2.25;;;;;;;14.70;53.97;98673.03;6156428;23;20033;-36
2023/01/17 03:19:56;;;;;;;3.35;2.20;;;;;;;14.68;54.32;98676.91;6154867;23;20294;-37
2023/01/17 03:22:23;;;;;;;4.60;2.75;;;;;;;14.68;53.31;98674.25;6153667;23;20025;-36
2023/01/17 03:24:49;;;;;;;4.95;2.58;;;;;;;14.67;53.46;98673.41;6153874;23;20107;-36
2023/01/17 03:27:16;;;;;;;8.23;2.38;;;;;;;14.65;54.16;98678.09;6154122;23;20033;-37
2023/01/17 03:29:42;;;;;;;3.80;2.50;;;;;;;14.65;54.20;98680.75;6155729;23;20026;-36
2023/01/17 03:32:09;;;;;;;4.30;2.20;;;;;;;14.64;54.24;98681.78;6155493;23;20100;-36
2023/01/17 03:34:35;;;;;;;3.97;2.00;;;;;;;14.64;53.87;98680.97;6154437;23;20876;-36
2023/01/17 03:37:02;;;;;;;2.38;1.48;;;;;;;14.64;53.98;98683.63;6153946;23;20025;-35
2023/01/17 03:39:28;;;;;;;3.80;2.30;;;;;;;14.64;54.20;98684.44;6154633;23;20021;-36
2023/01/17 03:41:55;;;;;;;3.72;1.77;;;;;;;14.64;53.39;98697.78;6154509;23;20341;-35
2023/01/17 03:44:22;;;;;;;3.13;2.03;;;;;;;14.64;54.05;98703.13;6155363;23;20021;-35
2023/01/17 03:46:48;;;;;;;4.68;2.10;;;;;;;14.64;54.18;98713.78;6155270;23;20021;-35
2023/01/17 03:49:15;;;;;;;2.58;1.80;;;;;;;14.64;54.14;98711.13;6153731;23;20060;-36
2023/01/17 03:51:42;;;;;;;2.67;1.98;;;;;;;14.64;53.40;98707.63;6154991;23;20284;-37
2023/01/17 03:54:08;;;;;;;2.47;1.70;;;;;;;14.66;53.78;98700.25;6156120;23;20022;-35
2023/01/17 03:56:35;;;;;;;2.88;1.98;;;;;;;14.65;54.00;98694.09;6155406;23;20021;-35
2023/01/17 03:59:02;;;;;;;2.97;1.85;;;;;;;14.66;53.54;98695.75;6157709;23;20021;-36
2023/01/17 04:01:28;;;;;;;3.42;1.92;;;;;;;14.66;53.82;98695.75;6156608;23;20323;-36
2023/01/17 04:03:55;;;;;;;4.15;1.98;;;;;;;14.66;54.38;98689.59;6156660;23;20030;-36
2023/01/17 04:06:21;;;;;;;3.92;2.03;;;;;;;14.66;54.01;98695.75;6157200;23;20018;-36
2023/01/17 04:08:48;;;;;;;3.67;1.55;;;;;;;14.64;53.40;98695.13;6155168;23;20022;-35
2023/01/17 04:11:14;;;;;;;4.65;2.17;;;;;;;14.65;53.91;98690.59;6156629;23;20104;-35
2023/01/17 04:13:41;;;;;;;3.15;1.95;;;;;;;14.64;53.96;98692.44;6156795;23;20022;-36
2023/01/17 04:16:14;;;;;;;3.08;1.88;;;;;;;14.63;53.28;98695.28;6157087;23;20021;-36
2023/01/17 04:18:40;;;;;;;3.88;1.92;;;;;;;14.63;53.83;98698.78;6155490;23;20021;-36
2023/01/17 04:21:07;;;;;;;3.17;1.90;;;;;;;14.63;53.42;98687.28;6157519;23;20021;-37
2023/01/17 04:23:34;;;;;;;4.55;1.55;;;;;;;14.60;53.67;98691.16;6156494;23;20025;-35
2023/01/17 04:26:02;;;;;;;2.42;1.55;;;;;;;14.61;53.29;98697.31;6156112;23;20018;-36
2023/01/17 04:28:29;;;;;;;2.70;1.60;;;;;;;14.60;53.88;98693.81;6157018;23;20029;-36
2023/01/17 04:30:59;;;;;;;3.45;1.80;;;;;;;14.59;54.10;98697.47;6157204;23;20325;-36
2023/01/17 04:33:25;;;;;;;3.00;1.90;;;;;;;14.58;53.98;98698.50;6156697;23;20076;-35
2023/01/17 04:35:53;;;;;;;4.55;1.80;;;;;;;14.58;53.99;98695.84;6157396;23;20116;-35
2023/01/17 04:38:19;;;;;;;3.40;1.60;;;;;;;14.56;53.16;98689.88;6156163;23;20025;-37
2023/01/17 04:40:47;;;;;;;3.55;2.00;;;;;;;14.56;53.20;98708.53;6157327;23;20025;-35
2023/01/17 04:43:14;;;;;;;2.80;1.27;;;;;;;14.56;52.92;98697.88;6157688;23;20031;-35
2023/01/17 04:45:41;;;;;;;2.17;1.27;;;;;;;14.56;53.28;98703.22;6157422;23;20021;-36
2023/01/17 04:48:11;;;;;;;4.80;1.70;;;;;;;14.56;53.78;98703.22;6156758;23;20057;-36
2023/01/17 04:50:38;;;;;;;1.90;1.48;;;;;;;14.57;53.78;98704.84;6132106;23;20298;-36
2023/01/17 04:53:05;;;;;;;1.70;1.30;;;;;;;14.56;53.69;98703.22;6155234;23;20331;-36
2023/01/17 04:55:31;;;;;;;1.80;1.40;;;;;;;14.56;53.55;98709.34;6156503;23;20028;-37
2023/01/17 04:57:58;;;;;;;5.07;1.65;;;;;;;14.55;52.95;98702.38;6156153;23;20109;-36
2023/01/17 05:00:24;;;;;;;4.22;1.60;;;;;;;14.55;53.40;98704.19;6157679;23;20025;-35
2023/01/17 05:02:51;;;;;;;2.35;1.40;;;;;;;14.54;53.82;98695.38;6155664;23;20022;-36
2023/01/17 05:05:17;;;;;;;2.15;1.30;;;;;;;14.54;53.76;98700.69;6154416;23;20060;-37
2023/01/17 05:07:52;;;;;;;3.45;1.50;;;;;;;14.53;53.40;98698.22;6156276;23;20021;-35
2023/01/17 05:10:18;;;;;;;2.00;1.20;;;;;;;14.53;52.98;98698.22;6154685;23;20029;-36
2023/01/17 05:12:55;;;;;;;2.28;1.75;;;;;;;14.51;52.98;98702.91;6154938;23;20106;-36
2023/01/17 05:15:23;;;;;;;3.97;1.50;;;;;;;14.51;52.91;98702.91;6154735;23;20025;-36
2023/01/17 05:17:51;;;;;;;2.72;1.63;;;;;;;14.50;53.29;98711.91;6155028;23;20060;-35
2023/01/17 05:20:19;;;;;;;3.78;1.60;;;;;;;14.50;53.17;98717.25;6155474;23;20028;-35
2023/01/17 05:22:55;;;;;;;3.92;1.88;;;;;;;14.47;52.91;98715.75;6154077;23;20021;-36
2023/01/17 05:25:30;;;;;;;3.42;1.30;;;;;;;14.47;52.75;98715.75;6154336;23;20417;-36
2023/01/17 05:28:00;;;;;;;2.85;1.73;;;;;;;14.48;52.99;98722.75;6154935;23;20032;-36
2023/01/17 05:30:31;;;;;;;3.65;1.48;;;;;;;14.46;53.27;98722.09;6156325;23;20029;-35
2023/01/17 05:32:58;;;;;;;3.30;1.40;;;;;;;14.47;53.09;98728.22;6155932;23;20021;-36
2023/01/17 05:35:31;;;;;;;2.78;1.30;;;;;;;14.46;52.81;98723.94;6154305;23;20409;-36
2023/01/17 05:37:58;;;;;;;3.50;1.67;;;;;;;14.46;53.47;98729.25;6154535;23;20068;-36
2023/01/17 05:40:27;;;;;;;2.85;1.50;;;;;;;14.46;52.75;98729.25;6129921;23;20031;-35
2023/01/17 05:42:56;;;;;;;2.70;1.50;;;;;;;14.46;52.87;98734.59;6156602;23;20033;-35
2023/01/17 05:45:26;;;;;;;2.83;1.80;;;;;;;14.45;52.82;98740.94;6157191;23;20021;-36
2023/01/17 05:47:54;;;;;;;3.70;1.77;;;;;;;14.46;52.55;98742.59;6156545;23;20043;-35
2023/01/17 05:50:24;;;;;;;2.38;1.50;;;;;;;14.45;52.78;98741.75;6155696;23;20021;-37
2023/01/17 05:52:53;;;;;;;4.13;1.98;;;;;;;14.44;53.39;98741.94;6154730;23;20025;-38
2023/01/17 05:55:20;;;;;;;2.75;1.70;;;;;;;14.44;52.78;98742.78;6155620;23;20021;-36
2023/01/17 05:57:48;;;;;;;3.38;1.60;;;;;;;14.43;53.42;98738.47;6155777;23;20084;-36
2023/01/17 06:00:15;;;;;;;3.53;1.80;;;;;;;14.43;53.33;98750.94;6156041;23;20040;-36
2023/01/17 06:02:43;;;;;;;4.35;2.10;;;;;;;14.44;53.15;98749.94;6156625;23;20022;-36
2023/01/17 06:05:10;;;;;;;3.45;2.33;;;;;;;14.44;53.08;98749.94;6155835;23;20330;-38
2023/01/17 06:07:37;;;;;;;2.95;1.90;;;;;;;14.42;53.14;98747.44;6156589;23;20327;-36
2023/01/17 06:10:04;;;;;;;3.72;1.83;;;;;;;14.41;53.23;98753.78;6154807;23;20025;-36
2023/01/17 06:12:31;;;;;;;4.78;1.88;;;;;;;14.41;52.56;98760.97;6155748;23;20025;-38
2023/01/17 06:14:57;;;;;;;4.30;2.47;;;;;;;14.41;53.16;98750.31;6155306;23;20044;-36
2023/01/17 06:17:24;;;;;;;4.88;1.90;;;;;;;14.41;52.86;98758.28;6156214;23;20075;-36
2023/01/17 06:19:50;;;;;;;2.80;1.80;;;;;;;14.40;53.43;98759.31;6155548;23;20022;-36
2023/01/17 06:22:17;;;;;;;4.20;1.73;;;;;;;14.40;53.41;98761.97;6153959;23;20029;-35
2023/01/17 06:24:44;;;;;;;3.65;1.95;;;;;;;14.38;53.09;98770.13;6152333;23;20022;-35
2023/01/17 06:27:10;;;;;;;3.92;2.10;;;;;;;14.38;52.96;98769.31;6155589;23;20024;-36
2023/01/17 06:29:37;;;;;;;3.63;2.13;;;;;;;14.39;53.01;98768.28;6155550;23;20044;-36
2023/01/17 06:32:04;;;;;;;3.45;2.03;;;;;;;14.38;53.20;98766.66;6155522;23;20022;-36
2023/01/17 06:34:30;;;;;;;4.13;2.42;;;;;;;14.37;53.15;98763.16;6153488;23;20033;-36
2023/01/17 06:36:57;;;;;;;4.57;2.40;;;;;;;14.36;52.57;98761.50;6155386;23;20041;-36
2023/01/17 06:39:23;;;;;;;3.92;2.38;;;;;;;14.35;52.51;98773.16;6154246;23;20021;-36
2023/01/17 06:41:50;;;;;;;5.07;2.00;;;;;;;14.35;52.72;98770.50;6154787;23;20067;-36
2023/01/17 06:44:16;;;;;;;3.78;2.47;;;;;;;14.35;52.94;98769.66;6154727;23;20047;-36
2023/01/17 06:46:43;;;;;;;4.00;2.55;;;;;;;14.36;52.47;98774.00;6154261;23;20299;-36
2023/01/17 06:49:10;;;;;;;5.38;2.47;;;;;;;14.36;53.04;98779.34;6154223;23;20281;-36
2023/01/17 06:51:37;;;;;;;5.00;2.50;;;;;;;14.35;52.53;98778.47;6155586;23;20142;-38
2023/01/17 06:54:03;;;;;;;5.07;2.33;;;;;;;14.36;53.25;98774.00;6154276;23;20398;-36
2023/01/17 06:56:31;;;;;;;5.35;2.38;;;;;;;14.35;53.28;98772.31;6154067;23;20318;-36
2023/01/17 06:58:57;;;;;;;3.47;2.50;;;;;;;14.36;53.09;98774.00;6155268;23;20108;-36
2023/01/17 07:01:24;;;;;;;4.22;2.53;;;;;;;14.36;53.29;98772.16;6155586;23;20386;-35
2023/01/17 07:03:54;;;;;;;4.25;2.30;;;;;;;14.37;52.62;98778.31;6154206;23;20031;-38
2023/01/17 07:06:20;;;;;;;3.55;2.20;;;;;;;14.38;52.54;98774.63;6155482;23;20028;-35
2023/01/17 07:08:47;;;;;;;4.72;2.63;;;;;;;14.36;52.98;98780.16;6154652;23;20026;-36
2023/01/17 07:11:14;;;;;;;5.03;2.40;;;;;;;14.37;53.27;98781.00;6154503;23;20026;-36
2023/01/17 07:13:40;;;;;;;4.35;2.17;;;;;;;14.37;52.42;98778.31;6155349;23;20416;-36
2023/01/17 07:16:07;;;;;;;4.68;2.38;;;;;;;14.36;52.42;98782.00;6155790;23;20021;-37
2023/01/17 07:18:34;;;;;;;4.15;2.22;;;;;;;14.35;52.82;98780.31;6152633;23;20029;-36
2023/01/17 07:21:01;;;;;;;3.20;1.90;;;;;;;14.35;53.37;98780.31;6154884;23;20100;-36
2023/01/17 07:23:27;;;;;;;3.97;2.50;;;;;;;14.35;52.77;98775.00;6148552;23;20298;-35
2023/01/17 07:25:59;;;;;;;3.97;2.20;;;;;;;14.33;52.61;98777.84;6155104;23;20032;-36
2023/01/17 07:28:27;;;;;;;3.33;2.10;;;;;;;14.32;53.17;98777.03;6156920;23;20318;-35
2023/01/17 07:30:53;;;;;;;5.70;2.58;;;;;;;14.32;53.38;98778.88;6156977;23;20332;-35
2023/01/17 07:33:20;;;;;;;4.25;2.38;;;;;;;14.32;53.13;98782.34;6157011;23;20025;-36
2023/01/17 07:35:47;;;;;;;5.65;3.00;;;;;;;14.30;52.78;98787.03;6157029;23;20021;-36
2023/01/17 07:38:16;;;;;;;3.45;2.17;;;;;;;14.30;52.67;98787.03;6155289;23;20024;-36
2023/01/17 07:40:44;;;;;;;3.22;2.20;;;;;;;14.30;52.76;98783.53;6156730;23;20021;-36
2023/01/17 07:43:13;;;;;;;4.07;2.47;;;;;;;14.29;52.83;98787.22;6157676;23;20021;-36
2023/01/17 07:45:45;;;;;;;4.32;2.20;;;;;;;14.29;53.08;98789.88;6156858;23;20037;-35
2023/01/17 07:48:12;;;;;;;4.55;2.28;;;;;;;14.28;52.93;98794.38;6156076;23;20480;-36
2023/01/17 07:50:39;;;;;;;4.30;2.47;;;;;;;14.28;53.49;98788.22;6157520;23;20026;-38
2023/01/17 07:53:05;;;;;;;2.95;2.03;;;;;;;14.29;52.72;98787.22;6155356;23;20030;-36
2023/01/17 07:55:32;;;;;;;4.47;2.30;;;;;;;14.28;53.29;98791.72;6130327;23;20057;-36
2023/01/17 07:57:58;;;;;;;3.80;2.25;;;;;;;14.26;53.30;98791.06;6157466;23;20021;-36
2023/01/17 08:00:28;;;;;;;4.45;2.28;;;;;;;14.26;53.05;98796.38;6156316;23;20080;-35
2023/01/17 08:02:56;;;;;;;3.25;2.08;;;;;;;14.26;53.40;98795.56;6154562;23;20458;-36
2023/01/17 08:05:24;;;;;;;4.25;2.53;;;;;;;14.27;52.93;98797.22;6157212;23;20022;-36
2023/01/17 08:07:50;;;;;;;4.47;2.38;;;;;;;14.27;53.31;98802.53;6155905;23;20149;-35
2023/01/17 08:10:17;;;;;;;3.92;2.40;;;;;;;14.26;52.78;98791.06;6155077;23;20025;-36
2023/01/17 08:12:48;;;;;;;3.63;2.13;;;;;;;14.25;53.35;98794.72;6155309;23;20107;-36
2023/01/17 08:15:16;;;;;;;3.20;1.90;;;;;;;14.26;53.08;98799.03;6157350;23;20105;-37
2023/01/17 08:17:47;;;;;;;4.38;2.60;;;;;;;14.25;53.01;98793.91;6157052;23;20108;-36
2023/01/17 08:20:15;;;;;;;4.35;2.10;;;;;;;14.25;52.95;98797.41;6156541;23;20464;-35
2023/01/17 08:22:41;;;;;;;3.38;1.85;;;;;;;14.26;53.33;98807.03;6155756;23;20025;-36
2023/01/17 08:25:08;;;;;;;4.03;2.22;;;;;;;14.26;53.11;98806.22;6155411;23;20026;-36
2023/01/17 08:27:35;;;;;;;4.30;2.47;;;;;;;14.26;53.04;98820.38;6156823;23;20335;-36
2023/01/17 08:30:03;;;;;;;4.18;2.15;;;;;;;14.25;52.62;98810.72;6156420;23;20029;-36
2023/01/17 08:32:29;;;;;;;3.75;2.28;;;;;;;14.25;53.52;98816.06;6156609;23;20025;-37
2023/01/17 08:34:56;;;;;;;3.70;2.13;;;;;;;14.26;53.58;98807.03;6156027;23;20029;-36
2023/01/17 08:37:23;;;;;;;3.35;1.85;;;;;;;14.26;53.12;98806.22;6153134;23;20041;-36
2023/01/17 08:39:50;;;;;;;3.67;2.22;;;;;;;14.26;52.87;98817.69;6154163;23;20029;-35
2023/01/17 08:42:16;;;;;;;2.83;2.15;;;;;;;14.27;52.81;98819.38;6156953;23;20294;-36
2023/01/17 08:44:43;;;;;;;4.90;2.00;;;;;;;14.28;53.32;98818.38;6155719;23;20029;-37
2023/01/17 08:47:10;;;;;;;6.93;2.25;;;;;;;14.28;53.29;98810.38;6155334;23;20024;-36
2023/01/17 08:49:36;;;;;;;4.25;2.00;;;;;;;14.30;53.53;98820.84;6156326;23;20026;-35
2023/01/17 08:52:04;;;;;;;3.65;2.20;;;;;;;14.32;53.08;98825.00;6156768;23;20289;-36
2023/01/17 08:54:30;;;;;;;3.15;1.70;;;;;;;14.36;53.36;98829.97;6155324;23;20330;-35
2023/01/17 08:56:57;;;;;;;3.85;2.30;;;;;;;14.38;53.72;98834.09;6155674;23;20289;-35
2023/01/17 08:59:23;;;;;;;3.30;2.10;;;;;;;14.41;53.73;98838.25;6155658;23;20021;-36
2023/01/17 09:01:51;;;;;;;4.07;1.83;;;;;;;14.43;53.88;98838.88;6156883;23;20033;-36
2023/01/17 09:04:18;;;;;;;6.13;2.15;;;;;;;14.46;53.76;98843.88;6154437;23;20294;-36
2023/01/17 09:06:47;;;;;;;3.13;1.88;;;;;;;14.49;53.93;98840.88;6156838;23;20025;-36
2023/01/17 09:09:15;;;;;;;3.03;1.80;;;;;;;14.52;53.39;98843.19;6154974;23;20330;-36
2023/01/17 09:11:42;;;;;;;5.97;2.03;;;;;;;14.55;53.58;98853.47;6156517;23;20021;-36
2023/01/17 09:14:11;;;;;;;3.90;2.17;;;;;;;14.60;53.99;98850.28;6156459;23;20034;-36
2023/01/17 09:16:38;;;;;;;2.95;1.90;;;;;;;14.64;53.80;98855.09;6156780;23;20488;-36
2023/01/17 09:19:04;;;;;;;3.75;2.13;;;;;;;14.71;53.73;98858.69;6155738;23;20234;-36
2023/01/17 09:21:31;;;;;;;4.15;2.30;;;;;;;14.75;53.98;98853.81;6154620;23;20101;-36
2023/01/17 09:23:58;;;;;;;3.42;1.80;;;;;;;14.79;54.01;98863.94;6154549;23;20378;-36
2023/01/17 09:26:28;;;;;;;2.25;1.70;;;;;;;14.81;53.55;98861.91;6154466;23;20100;-36
2023/01/17 09:28:55;;;;;;;1.73;1.20;;;;;;;14.85;53.80;98858.88;6155989;23;20326;-36
2023/01/17 09:31:22;;;;;;;2.85;1.70;;;;;;;14.89;53.61;98863.69;6156937;23;20204;-35
2023/01/17 09:33:50;;;;;;;2.47;1.55;;;;;;;14.92;53.55;98862.50;6155592;23;20452;-38
2023/01/17 09:36:17;;;;;;;3.65;1.88;;;;;;;14.95;53.88;98860.25;6156120;23;20068;-38
2023/01/17 09:38:44;;;;;;;1.48;1.23;;;;;;;14.98;54.62;98867.09;6154258;23;20033;-38
2023/01/17 09:41:28;;;;;;;3.65;1.77;;;;;;;15.00;54.06;98868.56;6154969;23;20025;-36
2023/01/17 09:44:06;;;;;;;3.58;2.00;;;;;;;15.03;53.79;98864.69;6155817;23;20025;-36
2023/01/17 09:46:40;;;;;;;3.10;1.70;;;;;;;15.06;53.60;98872.34;6156283;23;20308;-38
2023/01/17 09:49:38;;;;;;;3.47;1.92;;;;;;;15.08;54.72;98875.66;6155213;23;20024;-35
2023/01/17 09:52:07;;;;;;;3.50;1.95;;;;;;;15.11;53.75;98872.63;6156759;23;20101;-37
2023/01/17 09:54:39;;;;;;;5.22;1.80;;;;;;;15.13;54.68;98870.59;6155057;23;20162;-37
2023/01/17 09:57:51;;;;;;;6.18;2.17;;;;;;;15.16;54.46;98880.91;6155450;23;20029;-37
2023/01/17 10:00:46;;;;;;;4.25;2.50;;;;;;;15.19;54.08;98880.53;6154090;23;20450;-37
2023/01/17 10:03:21;;;;;;;2.88;1.85;;;;;;;15.24;54.43;98882.69;6154970;23;20087;-37
2023/01/17 10:06:11;;;;;;;4.68;2.45;;;;;;;15.29;54.50;98880.28;6155744;23;20021;-37
2023/01/17 10:08:47;;;;;;;3.40;1.80;;;;;;;15.36;54.21;98885.72;6153601;23;20037;-38
2023/01/17 10:11:41;;;;;;;4.05;2.20;;;;;;;15.38;53.48;98876.50;6154644;23;20022;-38
2023/01/17 10:14:46;;;;;;;3.75;2.17;;;;;;;15.43;53.96;98883.94;6152599;23;20029;-40
2023/01/17 10:17:53;;;;;;;3.85;2.03;;;;;;;15.45;54.88;98880.09;6153457;23;20022;-40
2023/01/17 10:20:49;;;;;;;3.15;1.80;;;;;;;15.47;54.68;98879.91;6088031;23;20043;-40
2023/01/17 10:23:36;;;;;;;3.83;2.20;;;;;;;15.46;53.76;98891.59;6153627;23;20029;-39
2023/01/17 10:26:11;;;;;;;2.85;1.58;;;;;;;15.46;54.35;98892.41;6155436;23;20330;-38
2023/01/17 10:28:47;;;;;;;3.67;1.75;;;;;;;15.44;54.07;98882.97;6155091;23;20021;-39
2023/01/17 10:31:25;;;;;;;4.00;1.60;;;;;;;15.43;53.37;98890.13;6155402;23;20021;-37
2023/01/17 10:33:57;;;;;;;4.88;2.00;;;;;;;15.43;54.20;98889.28;6155566;23;20045;-37
2023/01/17 10:36:26;;;;;;;3.63;1.80;;;;;;;15.41;54.53;98884.16;6155872;23;20032;-38
2023/01/17 10:39:00;;;;;;;2.95;1.75;;;;;;;15.40;53.90;98887.84;6154468;23;20100;-37
2023/01/17 10:41:41;;;;;;;3.70;1.80;;;;;;;15.40;53.97;98895.03;6156071;23;20033;-39
2023/01/17 10:44:28;;;;;;;3.10;1.83;;;;;;;15.40;53.90;98897.69;6156428;23;20031;-37
2023/01/17 10:47:17;;;;;;;4.53;1.90;;;;;;;15.39;54.51;98896.00;6155954;23;20026;-40
2023/01/17 10:49:47;;;;;;;2.90;1.67;;;;;;;15.40;53.90;98905.69;6155210;23;20273;-39
2023/01/17 10:52:26;;;;;;;4.53;1.60;;;;;;;15.38;53.99;98883.69;6154036;23;20468;-41
2023/01/17 10:55:02;;;;;;;2.67;1.50;;;;;;;15.38;53.04;98889.84;6153944;23;20043;-38
2023/01/17 10:57:36;;;;;;;5.10;2.00;;;;;;;15.38;53.42;98891.69;6154714;23;20025;-38
2023/01/17 11:00:14;;;;;;;;;;;;;;;15.36;52.78;98893.72;6156585;23;20433;-38
2023/01/17 11:02:48;;;;;;;3.72;1.83;;;;;;;15.38;52.49;98894.34;6157777;23;19917;-39
2023/01/17 11:05:29;;;;;;;3.53;1.63;;;;;;;15.33;52.75;98891.41;6157921;23;20025;-39
2023/01/17 11:08:14;;;;;;;4.38;1.70;;;;;;;15.31;53.65;98886.25;6157587;23;20577;-38
2023/01/17 11:10:56;;;;;;;3.88;1.80;;;;;;;15.32;52.83;98887.94;6156961;23;20335;-40
2023/01/17 11:13:28;;;;;;;3.92;1.55;;;;;;;15.31;53.29;98891.59;6156828;23;20084;-37
2023/01/17 11:16:01;;;;;;;3.70;1.83;;;;;;;15.31;52.77;98892.41;6154658;23;20032;-37
2023/01/17 11:18:30;;;;;;;5.20;1.83;;;;;;;15.33;53.08;98899.44;6156520;23;20064;-36
2023/01/17 11:21:19;;;;;;;4.90;1.80;;;;;;;15.34;53.85;98899.22;6157797;23;20029;-37
2023/01/17 11:23:49;;;;;;;3.55;2.05;;;;;;;15.36;53.05;98896.41;6156373;23;20044;-36
2023/01/17 11:26:27;;;;;;;4.80;1.85;;;;;;;15.36;53.31;98899.91;6157328;23;20032;-37
2023/01/17 11:29:25;;;;;;;3.15;1.70;;;;;;;15.37;53.17;98903.38;6157939;23;20394;-36
2023/01/17 11:31:55;;;;;;;4.00;1.90;;;;;;;15.41;52.95;98896.66;6156189;23;20025;-36
2023/01/17 11:34:24;;;;;;;5.07;2.03;;;;;;;15.44;53.56;98893.63;6157445;23;20045;-37
2023/01/17 11:37:18;;;;;;;3.22;1.73;;;;;;;15.49;53.22;98893.91;6157035;23;20449;-36
2023/01/17 11:39:47;;;;;;;3.17;1.60;;;;;;;15.53;52.89;98888.00;6155937;23;20026;-37
2023/01/17 11:42:39;;;;;;;3.65;1.52;;;;;;;15.58;52.43;98890.13;6158086;23;20026;-37
2023/01/17 11:45:36;;;;;;;3.53;1.98;;;;;;;15.63;52.31;98881.53;6152664;23;20390;-40
2023/01/17 11:48:09;;;;;;;2.58;1.50;;;;;;;15.68;52.94;98882.69;6107209;23;20044;-37
2023/01/17 11:50:39;;;;;;;2.67;1.45;;;;;;;15.72;52.00;98877.81;6157551;23;20033;-40
2023/01/17 11:53:17;;;;;;;4.10;1.45;;;;;;;15.74;52.06;98881.94;6156164;23;20025;-36
2023/01/17 11:56:08;;;;;;;3.08;1.48;;;;;;;15.78;51.84;98875.19;6155768;23;20108;-36
2023/01/17 11:58:39;;;;;;;3.08;1.35;;;;;;;15.84;52.93;98878.13;6157178;23;20128;-38
2023/01/17 12:01:24;;;;;;;3.13;1.50;;;;;;;15.87;51.98;98869.75;6158037;23;20287;-39
2023/01/17 12:04:21;;;;;;;2.78;1.30;;;;;;;15.91;51.57;98874.53;6156358;23;20024;-38
2023/01/17 12:07:08;;;;;;;2.08;1.40;;;;;;;15.96;52.11;98873.94;6155838;23;20053;-36
2023/01/17 12:09:48;;;;;;;2.63;1.58;;;;;;;16.00;51.96;98869.88;6156489;23;20021;-38
2023/01/17 12:15:43;;;;;;;4.05;1.60;;;;;;;16.08;52.16;98858.25;6157219;23;20025;-38
2023/01/17 12:18:54;;;;;;;4.50;1.40;;;;;;;16.11;52.15;98858.72;6156434;23;20029;-39
2023/01/17 12:21:39;;;;;;;2.40;1.33;;;;;;;16.16;51.86;98864.34;6037461;23;20130;-39
2023/01/17 12:24:18;;;;;;;2.15;1.38;;;;;;;16.19;51.93;98858.59;6036914;23;20031;-38
2023/01/17 12:26:53;;;;;;;2.55;1.30;;;;;;;16.22;51.30;98863.56;6117390;23;20398;-39
2023/01/17 12:29:22;;;;;;;3.55;1.58;;;;;;;16.25;52.00;98862.38;6157003;23;20021;-37
2023/01/17 12:32:16;;;;;;;2.45;1.40;;;;;;;16.27;51.56;98855.78;6157101;23;20025;-41
2023/01/17 12:34:49;;;;;;;4.53;1.65;;;;;;;16.32;51.71;98851.72;6157226;23;20124;-39
2023/01/17 12:37:35;;;;;;;8.48;1.67;;;;;;;16.34;51.52;98847.03;6156847;23;20029;-37
2023/01/17 12:40:24;;;;;;;3.88;1.50;;;;;;;16.36;51.62;98844.97;6154453;23;20453;-38
2023/01/17 12:42:57;;;;;;;2.67;1.67;;;;;;;16.38;51.72;98846.44;6157552;23;20286;-36
2023/01/17 12:45:43;;;;;;;1.77;1.33;;;;;;;16.40;51.42;98849.78;6157432;23;20021;-39
2023/01/17 12:48:18;;;;;;;1.92;1.20;;;;;;;16.42;51.26;98849.56;6157282;23;20017;-40
2023/01/17 12:51:04;;;;;;;2.22;1.10;;;;;;;16.44;51.88;98842.16;6157311;23;20285;-40
2023/01/17 12:53:41;;;;;;;2.35;1.17;;;;;;;16.47;51.64;98844.47;6155919;23;20104;-38
2023/01/17 12:56:10;;;;;;;2.05;1.13;;;;;;;16.49;51.44;98843.25;6155779;23;20038;-37
2023/01/17 12:58:50;;;;;;;2.55;1.45;;;;;;;16.51;50.79;98845.72;6156937;23;20026;-42
2023/01/17 13:01:29;;;;;;;2.30;1.38;;;;;;;16.53;51.23;98838.34;6156487;23;20029;-40
2023/01/17 13:04:09;;;;;;;1.95;1.30;;;;;;;16.56;50.92;98850.50;6156721;23;20032;-40
2023/01/17 13:06:42;;;;;;;1.33;1.08;;;;;;;16.57;51.07;98839.63;6157000;23;20025;-38
2023/01/17 13:09:12;;;;;;;3.08;1.23;;;;;;;16.59;51.31;98842.91;6154454;23;20403;-35
2023/01/17 13:11:48;;;;;;;2.13;1.40;;;;;;;16.61;51.21;98837.41;6155702;23;20032;-36
2023/01/17 13:14:15;;;;;;;3.83;1.20;;;;;;;16.62;51.44;98839.88;6156098;23;20309;-38
2023/01/17 13:16:53;;;;;;;3.22;1.35;;;;;;;16.66;51.23;98842.97;6156522;23;20032;-35
2023/01/17 13:19:30;;;;;;;1.63;1.10;;;;;;;16.68;50.94;98851.63;6155829;23;20021;-36
2023/01/17 13:22:01;;;;;;;5.97;1.38;;;;;;;16.70;51.38;98847.75;6155296;23;20029;-38
2023/01/17 13:24:54;;;;;;;1.50;0.90;;;;;;;16.72;51.59;98847.53;6154887;23;20051;-36
2023/01/17 13:27:34;;;;;;;1.60;1.33;;;;;;;16.75;51.42;98849.88;6155411;23;20056;-35